Penryn, United Kingdom
Current Conditions -  °F | °C
As of 4:50 AM on Saturday 29 Nov 2014 (Local Time) from EGDR Reporting Station
Haze Haze  
Wind Chill: 10°   Ceiling: Unl
Heat Index: 10°   Visibility: 6mi
Dew Point: 10°   Wind: 12mph
Humidity: 100%   Direction: 70°ENE
Pressure: 29.65"   Gusts: NA
Location:  50.17°N, 5.1°W
Report Text: EGDR 290450Z 07010KT 9999 BR FEW007 10/10 Q1004 BLU
Loading
Personal Weather Stations






























Interactive Weather Map New forecast layout! Learn more

10-Day Weather Forecast

Advertisements
Track Severe Weather on mobile